sensor_id;sensor_type;location;lat;lon;timestamp;P1;durP1;ratioP1;P2;durP2;ratioP2
39176;SDS011;24904;52.208;21.192;2023-07-31T04:16:26;5.20;;;3.10;;
39176;SDS011;24904;52.208;21.192;2023-07-31T04:21:31;4.80;;;2.90;;
39176;SDS011;24904;52.208;21.192;2023-07-31T04:30:16;6.40;;;2.70;;
39176;SDS011;24904;52.208;21.192;2023-07-31T04:35:21;5.20;;;2.70;;
39176;SDS011;24904;52.208;21.192;2023-07-31T04:40:26;4.00;;;2.70;;
39176;SDS011;24904;52.208;21.192;2023-07-31T04:45:31;7.30;;;2.60;;
39176;SDS011;24904;52.208;21.192;2023-07-31T04:50:36;4.40;;;2.90;;
39176;SDS011;24904;52.208;21.192;2023-07-31T04:55:41;3.70;;;2.80;;
39176;SDS011;24904;52.208;21.192;2023-07-31T05:00:46;5.30;;;2.70;;
39176;SDS011;24904;52.208;21.192;2023-07-31T05:05:51;4.10;;;2.40;;
39176;SDS011;24904;52.208;21.192;2023-07-31T05:10:56;5.80;;;2.60;;
39176;SDS011;24904;52.208;21.192;2023-07-31T05:16:01;5.40;;;2.70;;
39176;SDS011;24904;52.208;21.192;2023-07-31T05:21:07;7.50;;;2.80;;
39176;SDS011;24904;52.208;21.192;2023-07-31T05:26:12;8.50;;;3.10;;
39176;SDS011;24904;52.208;21.192;2023-07-31T05:31:17;5.20;;;2.50;;
39176;SDS011;24904;52.208;21.192;2023-07-31T05:36:22;6.20;;;3.20;;
39176;SDS011;24904;52.208;21.192;2023-07-31T05:41:27;5.30;;;2.70;;
39176;SDS011;24904;52.208;21.192;2023-07-31T05:46:32;5.40;;;2.70;;
39176;SDS011;24904;52.208;21.192;2023-07-31T05:51:38;5.90;;;2.50;;
39176;SDS011;24904;52.208;21.192;2023-07-31T05:56:43;7.80;;;2.80;;
39176;SDS011;24904;52.208;21.192;2023-07-31T06:01:48;5.50;;;3.60;;
39176;SDS011;24904;52.208;21.192;2023-07-31T06:06:53;8.10;;;2.70;;
39176;SDS011;24904;52.208;21.192;2023-07-31T06:11:58;5.10;;;3.00;;
39176;SDS011;24904;52.208;21.192;2023-07-31T06:17:03;8.30;;;2.90;;
39176;SDS011;24904;52.208;21.192;2023-07-31T06:22:08;8.50;;;3.50;;
39176;SDS011;24904;52.208;21.192;2023-07-31T06:27:14;9.50;;;3.00;;
39176;SDS011;24904;52.208;21.192;2023-07-31T06:32:19;7.20;;;3.60;;
39176;SDS011;24904;52.208;21.192;2023-07-31T06:37:24;8.90;;;3.80;;
39176;SDS011;24904;52.208;21.192;2023-07-31T06:42:29;4.90;;;2.60;;
39176;SDS011;24904;52.208;21.192;2023-07-31T06:47:34;7.30;;;2.70;;
39176;SDS011;24904;52.208;21.192;2023-07-31T06:52:39;7.70;;;3.40;;
39176;SDS011;24904;52.208;21.192;2023-07-31T06:57:45;6.50;;;3.10;;
39176;SDS011;24904;52.208;21.192;2023-07-31T07:02:50;6.00;;;2.80;;
39176;SDS011;24904;52.208;21.192;2023-07-31T07:07:55;7.00;;;3.20;;
39176;SDS011;24904;52.208;21.192;2023-07-31T07:13:00;9.90;;;3.40;;
39176;SDS011;24904;52.208;21.192;2023-07-31T07:18:05;6.10;;;3.50;;
39176;SDS011;24904;52.208;21.192;2023-07-31T07:23:12;7.90;;;3.10;;
39176;SDS011;24904;52.208;21.192;2023-07-31T07:28:17;8.00;;;3.90;;
39176;SDS011;24904;52.208;21.192;2023-07-31T07:33:23;5.20;;;3.00;;
39176;SDS011;24904;52.208;21.192;2023-07-31T07:38:28;12.00;;;3.90;;
39176;SDS011;24904;52.208;21.192;2023-07-31T07:43:33;9.40;;;4.10;;
39176;SDS011;24904;52.208;21.192;2023-07-31T07:48:38;11.10;;;3.40;;
39176;SDS011;24904;52.208;21.192;2023-07-31T07:53:43;5.40;;;2.80;;
39176;SDS011;24904;52.208;21.192;2023-07-31T07:58:49;5.70;;;2.80;;
39176;SDS011;24904;52.208;21.192;2023-07-31T08:03:54;6.20;;;3.00;;
39176;SDS011;24904;52.208;21.192;2023-07-31T08:09:00;9.90;;;2.80;;
39176;SDS011;24904;52.208;21.192;2023-07-31T08:14:08;5.50;;;3.00;;
39176;SDS011;24904;52.208;21.192;2023-07-31T08:19:13;9.00;;;3.00;;
39176;SDS011;24904;52.208;21.192;2023-07-31T08:24:18;6.50;;;3.00;;
39176;SDS011;24904;52.208;21.192;2023-07-31T08:29:23;8.50;;;3.30;;
39176;SDS011;24904;52.208;21.192;2023-07-31T08:34:28;6.30;;;2.70;;
39176;SDS011;24904;52.208;21.192;2023-07-31T08:39:33;6.60;;;2.80;;
39176;SDS011;24904;52.208;21.192;2023-07-31T08:44:41;4.90;;;2.50;;
39176;SDS011;24904;52.208;21.192;2023-07-31T08:49:47;4.40;;;2.20;;
39176;SDS011;24904;52.208;21.192;2023-07-31T08:54:54;8.10;;;2.40;;
39176;SDS011;24904;52.208;21.192;2023-07-31T08:59:59;4.90;;;2.40;;
39176;SDS011;24904;52.208;21.192;2023-07-31T09:05:05;4.20;;;2.10;;
39176;SDS011;24904;52.208;21.192;2023-07-31T09:10:12;6.20;;;2.40;;
39176;SDS011;24904;52.208;21.192;2023-07-31T09:15:17;3.10;;;2.30;;
39176;SDS011;24904;52.208;21.192;2023-07-31T09:20:23;4.40;;;2.70;;
39176;SDS011;24904;52.208;21.192;2023-07-31T09:25:28;9.10;;;2.60;;
39176;SDS011;24904;52.208;21.192;2023-07-31T09:30:43;9.20;;;2.20;;
39176;SDS011;24904;52.208;21.192;2023-07-31T09:35:50;7.30;;;2.60;;
39176;SDS011;24904;52.208;21.192;2023-07-31T09:40:55;6.30;;;3.20;;
39176;SDS011;24904;52.208;21.192;2023-07-31T09:46:03;5.40;;;2.40;;
39176;SDS011;24904;52.208;21.192;2023-07-31T09:51:16;5.20;;;2.30;;
39176;SDS011;24904;52.208;21.192;2023-07-31T09:56:28;4.70;;;2.10;;
39176;SDS011;24904;52.208;21.192;2023-07-31T10:01:36;5.40;;;1.90;;
39176;SDS011;24904;52.208;21.192;2023-07-31T10:06:42;5.90;;;2.10;;
39176;SDS011;24904;52.208;21.192;2023-07-31T10:11:51;3.80;;;2.00;;
39176;SDS011;24904;52.208;21.192;2023-07-31T10:17:02;2.60;;;1.80;;
39176;SDS011;24904;52.208;21.192;2023-07-31T10:22:08;8.60;;;2.10;;
39176;SDS011;24904;52.208;21.192;2023-07-31T10:27:14;5.30;;;2.30;;
39176;SDS011;24904;52.208;21.192;2023-07-31T10:32:19;5.90;;;2.10;;
39176;SDS011;24904;52.208;21.192;2023-07-31T10:37:26;4.90;;;2.10;;
39176;SDS011;24904;52.208;21.192;2023-07-31T10:42:33;8.50;;;2.10;;
39176;SDS011;24904;52.208;21.192;2023-07-31T10:47:40;5.20;;;1.80;;
39176;SDS011;24904;52.208;21.192;2023-07-31T10:52:48;4.90;;;1.90;;
39176;SDS011;24904;52.208;21.192;2023-07-31T10:57:54;5.80;;;1.90;;
39176;SDS011;24904;52.208;21.192;2023-07-31T11:03:01;7.20;;;1.70;;
39176;SDS011;24904;52.208;21.192;2023-07-31T11:08:11;8.80;;;1.90;;
39176;SDS011;24904;52.208;21.192;2023-07-31T11:13:18;7.30;;;1.90;;
39176;SDS011;24904;52.208;21.192;2023-07-31T11:18:23;6.80;;;1.90;;
39176;SDS011;24904;52.208;21.192;2023-07-31T11:23:29;4.10;;;1.50;;
39176;SDS011;24904;52.208;21.192;2023-07-31T11:28:34;6.80;;;1.90;;
39176;SDS011;24904;52.208;21.192;2023-07-31T11:33:40;4.90;;;1.50;;
39176;SDS011;24904;52.208;21.192;2023-07-31T11:38:45;3.30;;;1.50;;
39176;SDS011;24904;52.208;21.192;2023-07-31T11:43:51;3.50;;;1.30;;
39176;SDS011;24904;52.208;21.192;2023-07-31T11:49:04;5.50;;;1.70;;
39176;SDS011;24904;52.208;21.192;2023-07-31T11:54:10;3.20;;;1.40;;
39176;SDS011;24904;52.208;21.192;2023-07-31T11:59:53;7.00;;;1.60;;
39176;SDS011;24904;52.208;21.192;2023-07-31T12:04:59;4.20;;;1.60;;
39176;SDS011;24904;52.208;21.192;2023-07-31T12:10:03;2.80;;;1.40;;
39176;SDS011;24904;52.208;21.192;2023-07-31T12:15:14;5.40;;;1.60;;
39176;SDS011;24904;52.208;21.192;2023-07-31T12:20:18;8.70;;;1.70;;
39176;SDS011;24904;52.208;21.192;2023-07-31T12:25:22;4.30;;;1.70;;
39176;SDS011;24904;52.208;21.192;2023-07-31T12:30:31;3.10;;;1.30;;
39176;SDS011;24904;52.208;21.192;2023-07-31T12:35:37;5.10;;;1.50;;
39176;SDS011;24904;52.208;21.192;2023-07-31T12:40:42;4.10;;;1.60;;
39176;SDS011;24904;52.208;21.192;2023-07-31T12:45:45;7.90;;;1.60;;
39176;SDS011;24904;52.208;21.192;2023-07-31T12:50:48;6.10;;;1.40;;
39176;SDS011;24904;52.208;21.192;2023-07-31T12:55:51;4.30;;;1.50;;
39176;SDS011;24904;52.208;21.192;2023-07-31T13:00:54;4.60;;;2.10;;
39176;SDS011;24904;52.208;21.192;2023-07-31T13:05:57;10.40;;;2.10;;
39176;SDS011;24904;52.208;21.192;2023-07-31T13:11:00;4.90;;;1.60;;
39176;SDS011;24904;52.208;21.192;2023-07-31T13:16:04;7.40;;;2.10;;
39176;SDS011;24904;52.208;21.192;2023-07-31T13:21:07;5.70;;;1.90;;
39176;SDS011;24904;52.208;21.192;2023-07-31T13:26:10;6.40;;;1.40;;
39176;SDS011;24904;52.208;21.192;2023-07-31T13:31:13;6.60;;;1.70;;
39176;SDS011;24904;52.208;21.192;2023-07-31T13:36:16;5.00;;;1.80;;
39176;SDS011;24904;52.208;21.192;2023-07-31T13:41:19;7.00;;;2.00;;
39176;SDS011;24904;52.208;21.192;2023-07-31T13:46:22;6.30;;;2.40;;
39176;SDS011;24904;52.208;21.192;2023-07-31T13:51:26;6.00;;;3.10;;
39176;SDS011;24904;52.208;21.192;2023-07-31T13:56:29;7.10;;;3.00;;
39176;SDS011;24904;52.208;21.192;2023-07-31T14:01:32;6.40;;;2.90;;
39176;SDS011;24904;52.208;21.192;2023-07-31T14:06:35;5.50;;;2.70;;
39176;SDS011;24904;52.208;21.192;2023-07-31T14:11:38;13.00;;;5.90;;
39176;SDS011;24904;52.208;21.192;2023-07-31T14:16:41;18.40;;;6.50;;
39176;SDS011;24904;52.208;21.192;2023-07-31T14:21:45;9.00;;;5.20;;
39176;SDS011;24904;52.208;21.192;2023-07-31T14:27:08;9.50;;;5.20;;
39176;SDS011;24904;52.208;21.192;2023-07-31T14:32:13;7.40;;;4.20;;
39176;SDS011;24904;52.208;21.192;2023-07-31T14:37:18;8.70;;;3.60;;
39176;SDS011;24904;52.208;21.192;2023-07-31T14:42:23;4.30;;;2.30;;
39176;SDS011;24904;52.208;21.192;2023-07-31T14:47:28;8.10;;;1.80;;
39176;SDS011;24904;52.208;21.192;2023-07-31T14:52:34;7.20;;;1.70;;
39176;SDS011;24904;52.208;21.192;2023-07-31T14:57:56;5.40;;;1.60;;
39176;SDS011;24904;52.208;21.192;2023-07-31T15:03:01;3.80;;;1.80;;
39176;SDS011;24904;52.208;21.192;2023-07-31T15:08:07;4.20;;;1.50;;
39176;SDS011;24904;52.208;21.192;2023-07-31T15:13:12;9.40;;;1.70;;
39176;SDS011;24904;52.208;21.192;2023-07-31T15:18:16;5.80;;;1.60;;
39176;SDS011;24904;52.208;21.192;2023-07-31T15:23:22;5.10;;;1.60;;
39176;SDS011;24904;52.208;21.192;2023-07-31T15:28:28;3.80;;;1.50;;
39176;SDS011;24904;52.208;21.192;2023-07-31T15:33:36;6.60;;;2.10;;
39176;SDS011;24904;52.208;21.192;2023-07-31T15:38:41;7.60;;;1.80;;
39176;SDS011;24904;52.208;21.192;2023-07-31T15:43:46;5.00;;;1.60;;
39176;SDS011;24904;52.208;21.192;2023-07-31T15:48:51;4.70;;;1.80;;
39176;SDS011;24904;52.208;21.192;2023-07-31T15:53:56;5.50;;;1.60;;
39176;SDS011;24904;52.208;21.192;2023-07-31T15:59:01;5.40;;;1.50;;
39176;SDS011;24904;52.208;21.192;2023-07-31T16:04:06;6.20;;;1.90;;
39176;SDS011;24904;52.208;21.192;2023-07-31T16:09:11;5.20;;;1.60;;
39176;SDS011;24904;52.208;21.192;2023-07-31T16:14:16;3.70;;;1.60;;
39176;SDS011;24904;52.208;21.192;2023-07-31T16:19:21;8.50;;;1.70;;
39176;SDS011;24904;52.208;21.192;2023-07-31T16:24:26;5.90;;;2.20;;
39176;SDS011;24904;52.208;21.192;2023-07-31T16:29:32;6.60;;;2.00;;
39176;SDS011;24904;52.208;21.192;2023-07-31T16:34:37;9.20;;;2.60;;
39176;SDS011;24904;52.208;21.192;2023-07-31T16:39:42;3.90;;;1.60;;
39176;SDS011;24904;52.208;21.192;2023-07-31T16:44:48;8.20;;;2.30;;
39176;SDS011;24904;52.208;21.192;2023-07-31T16:49:53;6.00;;;2.40;;
39176;SDS011;24904;52.208;21.192;2023-07-31T16:54:58;5.20;;;2.20;;
39176;SDS011;24904;52.208;21.192;2023-07-31T17:00:04;6.00;;;2.30;;
39176;SDS011;24904;52.208;21.192;2023-07-31T17:05:11;10.20;;;2.40;;
39176;SDS011;24904;52.208;21.192;2023-07-31T17:10:16;5.50;;;2.20;;
39176;SDS011;24904;52.208;21.192;2023-07-31T17:15:21;5.70;;;1.90;;
39176;SDS011;24904;52.208;21.192;2023-07-31T17:20:26;6.90;;;2.30;;
39176;SDS011;24904;52.208;21.192;2023-07-31T17:25:33;4.90;;;2.00;;
39176;SDS011;24904;52.208;21.192;2023-07-31T17:30:40;6.00;;;2.30;;
39176;SDS011;24904;52.208;21.192;2023-07-31T17:35:45;4.40;;;2.30;;
39176;SDS011;24904;52.208;21.192;2023-07-31T17:44:53;7.10;;;2.60;;
39176;SDS011;24904;52.208;21.192;2023-07-31T17:49:56;7.00;;;2.70;;
39176;SDS011;24904;52.208;21.192;2023-07-31T17:54:59;6.60;;;2.40;;
39176;SDS011;24904;52.208;21.192;2023-07-31T18:00:02;5.30;;;2.30;;
39176;SDS011;24904;52.208;21.192;2023-07-31T18:05:08;5.50;;;2.50;;
39176;SDS011;24904;52.208;21.192;2023-07-31T18:10:11;7.00;;;2.20;;
39176;SDS011;24904;52.208;21.192;2023-07-31T18:15:14;5.80;;;2.40;;
39176;SDS011;24904;52.208;21.192;2023-07-31T18:20:17;4.90;;;2.10;;
39176;SDS011;24904;52.208;21.192;2023-07-31T18:25:20;8.40;;;2.20;;
39176;SDS011;24904;52.208;21.192;2023-07-31T18:30:23;6.60;;;2.60;;
39176;SDS011;24904;52.208;21.192;2023-07-31T18:35:26;8.70;;;2.40;;
39176;SDS011;24904;52.208;21.192;2023-07-31T18:40:31;6.40;;;2.40;;
39176;SDS011;24904;52.208;21.192;2023-07-31T18:45:35;9.70;;;2.10;;
39176;SDS011;24904;52.208;21.192;2023-07-31T18:50:40;5.60;;;2.20;;
39176;SDS011;24904;52.208;21.192;2023-07-31T18:55:43;5.30;;;2.40;;
39176;SDS011;24904;52.208;21.192;2023-07-31T19:00:46;8.30;;;2.40;;
39176;SDS011;24904;52.208;21.192;2023-07-31T19:05:50;5.40;;;2.10;;
39176;SDS011;24904;52.208;21.192;2023-07-31T19:10:53;9.10;;;2.60;;
39176;SDS011;24904;52.208;21.192;2023-07-31T19:15:56;5.30;;;2.50;;
39176;SDS011;24904;52.208;21.192;2023-07-31T19:20:59;5.10;;;2.10;;
39176;SDS011;24904;52.208;21.192;2023-07-31T19:26:02;7.60;;;2.10;;
39176;SDS011;24904;52.208;21.192;2023-07-31T19:31:05;4.40;;;2.40;;
39176;SDS011;24904;52.208;21.192;2023-07-31T19:36:08;7.70;;;2.60;;
39176;SDS011;24904;52.208;21.192;2023-07-31T19:41:11;7.00;;;2.20;;
39176;SDS011;24904;52.208;21.192;2023-07-31T19:46:16;5.70;;;2.70;;
39176;SDS011;24904;52.208;21.192;2023-07-31T19:51:19;5.60;;;2.70;;
39176;SDS011;24904;52.208;21.192;2023-07-31T19:56:22;7.20;;;2.90;;
39176;SDS011;24904;52.208;21.192;2023-07-31T20:01:25;5.40;;;2.40;;
39176;SDS011;24904;52.208;21.192;2023-07-31T20:06:28;13.80;;;2.70;;
39176;SDS011;24904;52.208;21.192;2023-07-31T20:11:31;8.30;;;2.50;;
39176;SDS011;24904;52.208;21.192;2023-07-31T20:16:34;7.70;;;2.80;;
39176;SDS011;24904;52.208;21.192;2023-07-31T20:21:41;5.90;;;2.70;;
39176;SDS011;24904;52.208;21.192;2023-07-31T20:26:44;4.90;;;2.50;;
39176;SDS011;24904;52.208;21.192;2023-07-31T20:31:47;5.70;;;2.60;;
39176;SDS011;24904;52.208;21.192;2023-07-31T20:36:50;5.30;;;2.60;;
39176;SDS011;24904;52.208;21.192;2023-07-31T20:41:53;6.30;;;2.50;;
39176;SDS011;24904;52.208;21.192;2023-07-31T20:46:56;5.00;;;2.50;;
39176;SDS011;24904;52.208;21.192;2023-07-31T20:51:59;7.20;;;2.90;;
39176;SDS011;24904;52.208;21.192;2023-07-31T20:57:02;6.70;;;2.40;;
39176;SDS011;24904;52.208;21.192;2023-07-31T21:02:06;10.60;;;3.30;;
39176;SDS011;24904;52.208;21.192;2023-07-31T21:07:10;4.50;;;2.70;;
39176;SDS011;24904;52.208;21.192;2023-07-31T21:12:16;4.90;;;2.90;;
39176;SDS011;24904;52.208;21.192;2023-07-31T21:17:19;5.50;;;2.50;;
39176;SDS011;24904;52.208;21.192;2023-07-31T21:22:22;8.50;;;2.90;;
39176;SDS011;24904;52.208;21.192;2023-07-31T21:27:26;6.50;;;2.90;;
39176;SDS011;24904;52.208;21.192;2023-07-31T21:32:30;8.60;;;2.60;;
39176;SDS011;24904;52.208;21.192;2023-07-31T21:37:33;5.10;;;2.90;;
39176;SDS011;24904;52.208;21.192;2023-07-31T21:42:37;9.00;;;3.30;;
39176;SDS011;24904;52.208;21.192;2023-07-31T21:47:40;6.70;;;3.00;;
39176;SDS011;24904;52.208;21.192;2023-07-31T21:52:44;12.80;;;3.40;;
39176;SDS011;24904;52.208;21.192;2023-07-31T21:57:47;8.90;;;3.80;;
39176;SDS011;24904;52.208;21.192;2023-07-31T22:02:51;8.00;;;3.60;;
39176;SDS011;24904;52.208;21.192;2023-07-31T22:07:54;8.90;;;3.30;;
39176;SDS011;24904;52.208;21.192;2023-07-31T22:12:57;9.90;;;3.70;;
39176;SDS011;24904;52.208;21.192;2023-07-31T22:18:00;6.30;;;3.30;;
39176;SDS011;24904;52.208;21.192;2023-07-31T22:23:03;11.20;;;3.60;;
39176;SDS011;24904;52.208;21.192;2023-07-31T22:28:06;9.30;;;3.80;;
39176;SDS011;24904;52.208;21.192;2023-07-31T22:33:10;11.30;;;3.80;;
39176;SDS011;24904;52.208;21.192;2023-07-31T22:38:13;9.50;;;4.50;;
39176;SDS011;24904;52.208;21.192;2023-07-31T22:43:16;9.10;;;4.10;;
39176;SDS011;24904;52.208;21.192;2023-07-31T22:48:19;10.60;;;4.40;;
39176;SDS011;24904;52.208;21.192;2023-07-31T22:53:22;7.80;;;3.70;;
39176;SDS011;24904;52.208;21.192;2023-07-31T22:58:25;10.60;;;4.20;;
39176;SDS011;24904;52.208;21.192;2023-07-31T23:03:28;9.20;;;4.20;;
39176;SDS011;24904;52.208;21.192;2023-07-31T23:08:31;8.30;;;4.20;;
39176;SDS011;24904;52.208;21.192;2023-07-31T23:13:34;7.60;;;3.80;;
39176;SDS011;24904;52.208;21.192;2023-07-31T23:18:37;6.80;;;3.80;;
39176;SDS011;24904;52.208;21.192;2023-07-31T23:23:41;13.00;;;4.50;;
39176;SDS011;24904;52.208;21.192;2023-07-31T23:28:44;8.60;;;3.90;;
39176;SDS011;24904;52.208;21.192;2023-07-31T23:33:47;10.50;;;3.80;;
39176;SDS011;24904;52.208;21.192;2023-07-31T23:38:50;10.70;;;4.10;;
39176;SDS011;24904;52.208;21.192;2023-07-31T23:43:54;13.40;;;3.70;;
39176;SDS011;24904;52.208;21.192;2023-07-31T23:49:00;9.30;;;4.30;;
39176;SDS011;24904;52.208;21.192;2023-07-31T23:54:03;15.80;;;3.80;;
39176;SDS011;24904;52.208;21.192;2023-07-31T23:59:06;7.70;;;3.60;;
